KSCK/SCK METAR and TAF weather

Enter ICAO airport designator
Station Type Date Time Source
KSCK METAR 2023/09/21 17:55 UTC NOAA

KSCK 211755Z VRB05KT 10SM HZ CLR 22/08 A2987 RMK AO2 SLP114 T02220078 10228 20117 51007


Station Type Date Time Source
KSCK Decoded METAR 2023/09/21 17:55 UTC NOAA

STOCKTON METROPOLITAN AIRPORT , CA, United States (KSCK) 37-54N 121-14W 10M
Sep 21, 2023 - 01:55 PM EDT / 2023.09.21 1755 UTC
Wind: Variable at 6 MPH (5 KT):0
Visibility: 10 mile(s):0
Sky conditions: clear
Weather: haze
Temperature: 72.0 F (22.2 C)
Dew Point: 46.0 F (7.8 C)
Relative Humidity: 39%
Pressure (altimeter): 29.87 in. Hg (1011 hPa)
Pressure tendency: 0.02 inches (0.7 hPa) higher than three hours ago
ob: KSCK 211755Z VRB05KT 10SM HZ CLR 22/08 A2987 RMK AO2 SLP114 T02220078 10228 20117 51007
cycle: 18

Station Type Date Time Source
KSCK TAF 2023/09/21 18:28 UTC NOAA

TAF KSCK 211726Z 2118/2218 30008KT 6SM HZ SKC
FM220600 VRB05KT P6SM SKC

Example: see airport list